sensor_id;sensor_type;location;lat;lon;timestamp;pressure;altitude;pressure_sealevel;temperature;humidity
59009;BME280;44794;42.652;23.318;2024-03-07T00:02:17;94336.47;;;11.77;100.00
59009;BME280;44794;42.652;23.318;2024-03-07T00:04:42;94324.75;;;11.51;100.00
59009;BME280;44794;42.652;23.318;2024-03-07T00:07:08;94328.56;;;11.36;100.00
59009;BME280;44794;42.652;23.318;2024-03-07T00:09:33;94320.59;;;11.18;100.00
59009;BME280;44794;42.652;23.318;2024-03-07T00:11:59;94319.09;;;11.15;100.00
59009;BME280;44794;42.652;23.318;2024-03-07T00:14:25;94321.81;;;11.14;100.00
59009;BME280;44794;42.652;23.318;2024-03-07T00:16:54;94312.59;;;11.10;100.00
59009;BME280;44794;42.652;23.318;2024-03-07T00:19:19;94308.34;;;11.09;100.00
59009;BME280;44794;42.652;23.318;2024-03-07T00:21:44;94301.75;;;11.05;100.00
59009;BME280;44794;42.652;23.318;2024-03-07T00:24:10;94296.66;;;10.61;100.00
59009;BME280;44794;42.652;23.318;2024-03-07T00:26:35;94295.19;;;10.90;100.00
59009;BME280;44794;42.652;23.318;2024-03-07T00:29:01;94298.44;;;11.03;100.00
59009;BME280;44794;42.652;23.318;2024-03-07T00:31:26;94295.34;;;11.20;100.00
59009;BME280;44794;42.652;23.318;2024-03-07T00:33:51;94295.41;;;10.98;100.00
59009;BME280;44794;42.652;23.318;2024-03-07T00:36:17;94303.78;;;11.01;100.00
59009;BME280;44794;42.652;23.318;2024-03-07T00:38:42;94300.97;;;10.93;100.00
59009;BME280;44794;42.652;23.318;2024-03-07T00:41:07;94297.50;;;11.04;100.00
59009;BME280;44794;42.652;23.318;2024-03-07T00:43:32;94297.28;;;10.96;100.00
59009;BME280;44794;42.652;23.318;2024-03-07T00:45:58;94312.06;;;10.84;100.00
59009;BME280;44794;42.652;23.318;2024-03-07T00:48:23;94302.75;;;10.82;100.00
59009;BME280;44794;42.652;23.318;2024-03-07T00:50:50;94292.50;;;10.80;100.00
59009;BME280;44794;42.652;23.318;2024-03-07T00:53:15;94297.13;;;10.66;100.00
59009;BME280;44794;42.652;23.318;2024-03-07T00:55:40;94297.31;;;10.85;100.00
59009;BME280;44794;42.652;23.318;2024-03-07T00:58:06;94294.06;;;10.72;100.00
59009;BME280;44794;42.652;23.318;2024-03-07T01:00:31;94284.16;;;10.66;100.00
59009;BME280;44794;42.652;23.318;2024-03-07T01:02:56;94271.19;;;10.55;100.00
59009;BME280;44794;42.652;23.318;2024-03-07T01:05:22;94276.41;;;10.44;100.00
59009;BME280;44794;42.652;23.318;2024-03-07T01:07:47;94273.22;;;10.41;100.00
59009;BME280;44794;42.652;23.318;2024-03-07T01:10:13;94268.84;;;10.41;100.00
59009;BME280;44794;42.652;23.318;2024-03-07T01:12:38;94266.00;;;10.33;100.00
59009;BME280;44794;42.652;23.318;2024-03-07T01:15:03;94265.91;;;10.24;100.00
59009;BME280;44794;42.652;23.318;2024-03-07T01:17:32;94260.38;;;10.06;100.00
59009;BME280;44794;42.652;23.318;2024-03-07T01:19:57;94253.88;;;10.01;100.00
59009;BME280;44794;42.652;23.318;2024-03-07T01:22:23;94265.34;;;10.09;100.00
59009;BME280;44794;42.652;23.318;2024-03-07T01:24:48;94257.66;;;10.19;100.00
59009;BME280;44794;42.652;23.318;2024-03-07T01:27:15;94262.72;;;10.20;100.00
59009;BME280;44794;42.652;23.318;2024-03-07T01:29:41;94256.38;;;10.24;100.00
59009;BME280;44794;42.652;23.318;2024-03-07T01:32:06;94262.72;;;10.20;100.00
59009;BME280;44794;42.652;23.318;2024-03-07T01:34:31;94263.69;;;10.08;100.00
59009;BME280;44794;42.652;23.318;2024-03-07T01:36:57;94257.56;;;10.09;100.00
59009;BME280;44794;42.652;23.318;2024-03-07T01:39:22;94252.81;;;10.03;100.00
59009;BME280;44794;42.652;23.318;2024-03-07T01:41:48;94256.78;;;9.74;100.00
59009;BME280;44794;42.652;23.318;2024-03-07T01:44:13;94240.53;;;9.94;100.00
59009;BME280;44794;42.652;23.318;2024-03-07T01:46:39;94247.44;;;9.72;100.00
59009;BME280;44794;42.652;23.318;2024-03-07T01:49:06;94243.44;;;9.79;100.00
59009;BME280;44794;42.652;23.318;2024-03-07T01:51:32;94239.09;;;9.90;100.00
59009;BME280;44794;42.652;23.318;2024-03-07T01:53:58;94245.53;;;10.08;100.00
59009;BME280;44794;42.652;23.318;2024-03-07T01:56:24;94242.53;;;9.91;100.00
59009;BME280;44794;42.652;23.318;2024-03-07T01:58:49;94247.13;;;9.87;100.00
59009;BME280;44794;42.652;23.318;2024-03-07T02:01:14;94257.69;;;9.63;100.00
59009;BME280;44794;42.652;23.318;2024-03-07T02:03:40;94265.84;;;9.69;100.00
59009;BME280;44794;42.652;23.318;2024-03-07T02:06:06;94264.09;;;9.91;100.00
59009;BME280;44794;42.652;23.318;2024-03-07T02:08:31;94269.28;;;9.91;100.00
59009;BME280;44794;42.652;23.318;2024-03-07T02:10:57;94267.16;;;9.85;100.00
59009;BME280;44794;42.652;23.318;2024-03-07T02:13:22;94269.34;;;10.13;100.00
59009;BME280;44794;42.652;23.318;2024-03-07T02:15:48;94261.75;;;10.10;100.00
59009;BME280;44794;42.652;23.318;2024-03-07T02:18:13;94262.72;;;10.20;100.00
59009;BME280;44794;42.652;23.318;2024-03-07T02:20:42;94252.66;;;9.83;100.00
59009;BME280;44794;42.652;23.318;2024-03-07T02:23:07;94255.31;;;9.38;100.00
59009;BME280;44794;42.652;23.318;2024-03-07T02:25:33;94247.91;;;9.55;100.00
59009;BME280;44794;42.652;23.318;2024-03-07T02:28:02;94250.97;;;9.49;100.00
59009;BME280;44794;42.652;23.318;2024-03-07T02:30:29;94258.84;;;9.37;100.00
59009;BME280;44794;42.652;23.318;2024-03-07T02:32:57;94261.59;;;9.12;100.00
59009;BME280;44794;42.652;23.318;2024-03-07T02:35:24;94253.78;;;9.01;100.00
59009;BME280;44794;42.652;23.318;2024-03-07T02:37:49;94259.50;;;9.17;100.00
59009;BME280;44794;42.652;23.318;2024-03-07T02:40:15;94265.66;;;9.38;100.00
59009;BME280;44794;42.652;23.318;2024-03-07T02:42:41;94269.72;;;9.53;100.00
59009;BME280;44794;42.652;23.318;2024-03-07T02:45:06;94268.19;;;9.72;100.00
59009;BME280;44794;42.652;23.318;2024-03-07T02:47:32;94270.69;;;9.84;100.00
59009;BME280;44794;42.652;23.318;2024-03-07T02:49:57;94271.63;;;9.83;100.00
59009;BME280;44794;42.652;23.318;2024-03-07T02:52:22;94275.47;;;10.01;100.00
59009;BME280;44794;42.652;23.318;2024-03-07T02:54:48;94279.00;;;10.00;100.00
59009;BME280;44794;42.652;23.318;2024-03-07T02:57:13;94281.59;;;10.11;100.00
59009;BME280;44794;42.652;23.318;2024-03-07T02:59:38;94266.44;;;9.83;100.00
59009;BME280;44794;42.652;23.318;2024-03-07T03:02:03;94274.34;;;9.82;100.00
59009;BME280;44794;42.652;23.318;2024-03-07T03:04:28;94278.22;;;9.76;100.00
59009;BME280;44794;42.652;23.318;2024-03-07T03:06:54;94279.16;;;9.75;100.00
59009;BME280;44794;42.652;23.318;2024-03-07T03:09:19;94281.06;;;9.73;100.00
59009;BME280;44794;42.652;23.318;2024-03-07T03:11:46;94281.75;;;9.75;100.00
59009;BME280;44794;42.652;23.318;2024-03-07T03:14:12;94268.56;;;9.78;100.00
59009;BME280;44794;42.652;23.318;2024-03-07T03:16:40;94285.53;;;9.82;100.00
59009;BME280;44794;42.652;23.318;2024-03-07T03:19:06;94278.78;;;9.58;100.00
59009;BME280;44794;42.652;23.318;2024-03-07T03:21:33;94275.38;;;9.23;100.00
59009;BME280;44794;42.652;23.318;2024-03-07T03:23:59;94287.84;;;9.07;100.00
59009;BME280;44794;42.652;23.318;2024-03-07T03:26:24;94294.56;;;9.10;100.00
59009;BME280;44794;42.652;23.318;2024-03-07T03:28:49;94291.03;;;9.11;100.00
59009;BME280;44794;42.652;23.318;2024-03-07T03:31:15;94287.91;;;9.06;100.00
59009;BME280;44794;42.652;23.318;2024-03-07T03:33:41;94283.75;;;8.69;100.00
59009;BME280;44794;42.652;23.318;2024-03-07T03:36:06;94299.19;;;8.94;100.00
59009;BME280;44794;42.652;23.318;2024-03-07T03:38:32;94302.81;;;9.15;100.00
59009;BME280;44794;42.652;23.318;2024-03-07T03:40:57;94310.91;;;9.10;100.00
59009;BME280;44794;42.652;23.318;2024-03-07T03:43:22;94312.97;;;9.18;100.00
59009;BME280;44794;42.652;23.318;2024-03-07T03:45:47;94299.25;;;9.39;100.00
59009;BME280;44794;42.652;23.318;2024-03-07T03:48:13;94267.25;;;9.17;100.00
59009;BME280;44794;42.652;23.318;2024-03-07T03:50:38;94251.94;;;8.80;100.00
59009;BME280;44794;42.652;23.318;2024-03-07T03:53:03;94264.28;;;9.10;100.00
59009;BME280;44794;42.652;23.318;2024-03-07T03:55:29;94273.91;;;9.32;100.00
59009;BME280;44794;42.652;23.318;2024-03-07T03:57:54;94276.50;;;9.43;100.00
59009;BME280;44794;42.652;23.318;2024-03-07T04:00:21;94278.47;;;9.73;100.00
59009;BME280;44794;42.652;23.318;2024-03-07T04:02:48;94278.00;;;9.90;100.00
59009;BME280;44794;42.652;23.318;2024-03-07T04:05:13;94275.66;;;9.87;100.00
59009;BME280;44794;42.652;23.318;2024-03-07T04:07:39;94279.28;;;9.74;100.00
59009;BME280;44794;42.652;23.318;2024-03-07T04:10:04;94283.31;;;9.78;100.00
59009;BME280;44794;42.652;23.318;2024-03-07T04:12:32;94283.09;;;9.92;100.00
59009;BME280;44794;42.652;23.318;2024-03-07T04:14:57;94289.38;;;10.11;100.00
59009;BME280;44794;42.652;23.318;2024-03-07T04:17:22;94288.66;;;9.98;100.00
59009;BME280;44794;42.652;23.318;2024-03-07T04:19:48;94281.81;;;9.97;100.00
59009;BME280;44794;42.652;23.318;2024-03-07T04:22:13;94290.53;;;10.18;100.00
59009;BME280;44794;42.652;23.318;2024-03-07T04:24:38;94288.44;;;10.34;100.00
59009;BME280;44794;42.652;23.318;2024-03-07T04:27:05;94290.78;;;10.48;100.00
59009;BME280;44794;42.652;23.318;2024-03-07T04:29:31;94285.94;;;10.54;100.00
59009;BME280;44794;42.652;23.318;2024-03-07T04:31:57;94291.00;;;10.56;100.00
59009;BME280;44794;42.652;23.318;2024-03-07T04:34:23;94300.44;;;10.46;100.00
59009;BME280;44794;42.652;23.318;2024-03-07T04:36:48;94296.22;;;10.45;100.00
59009;BME280;44794;42.652;23.318;2024-03-07T04:39:13;94292.06;;;10.43;100.00
59009;BME280;44794;42.652;23.318;2024-03-07T04:41:53;94286.66;;;10.46;100.00
59009;BME280;44794;42.652;23.318;2024-03-07T04:44:19;94284.75;;;10.37;100.00
59009;BME280;44794;42.652;23.318;2024-03-07T04:46:47;94285.53;;;9.82;100.00
59009;BME280;44794;42.652;23.318;2024-03-07T04:49:14;94288.50;;;9.78;100.00
59009;BME280;44794;42.652;23.318;2024-03-07T04:51:40;94288.00;;;9.28;100.00
59009;BME280;44794;42.652;23.318;2024-03-07T04:54:05;94298.28;;;9.06;100.00
59009;BME280;44794;42.652;23.318;2024-03-07T04:56:31;94302.19;;;9.11;100.00
59009;BME280;44794;42.652;23.318;2024-03-07T04:58:59;94308.78;;;8.81;100.00
59009;BME280;44794;42.652;23.318;2024-03-07T05:01:24;94301.19;;;8.55;100.00
59009;BME280;44794;42.652;23.318;2024-03-07T05:03:50;94318.38;;;8.56;100.00
59009;BME280;44794;42.652;23.318;2024-03-07T05:06:16;94306.31;;;8.44;100.00
59009;BME280;44794;42.652;23.318;2024-03-07T05:08:41;94322.59;;;8.69;100.00
59009;BME280;44794;42.652;23.318;2024-03-07T05:11:09;94325.97;;;8.46;100.00
59009;BME280;44794;42.652;23.318;2024-03-07T05:13:35;94320.16;;;8.55;100.00
59009;BME280;44794;42.652;23.318;2024-03-07T05:16:02;94322.00;;;8.53;100.00
59009;BME280;44794;42.652;23.318;2024-03-07T05:18:27;94304.81;;;8.04;100.00
59009;BME280;44794;42.652;23.318;2024-03-07T05:20:52;94302.50;;;8.12;100.00
59009;BME280;44794;42.652;23.318;2024-03-07T05:23:19;94308.91;;;8.44;100.00
59009;BME280;44794;42.652;23.318;2024-03-07T05:25:44;94301.38;;;8.64;100.00
59009;BME280;44794;42.652;23.318;2024-03-07T05:28:11;94314.44;;;8.50;100.00
59009;BME280;44794;42.652;23.318;2024-03-07T05:30:36;94323.16;;;8.49;100.00
59009;BME280;44794;42.652;23.318;2024-03-07T05:33:02;94329.19;;;8.37;100.00
59009;BME280;44794;42.652;23.318;2024-03-07T05:35:27;94330.59;;;8.54;100.00
59009;BME280;44794;42.652;23.318;2024-03-07T05:37:54;94334.94;;;8.53;100.00
59009;BME280;44794;42.652;23.318;2024-03-07T05:40:21;94323.53;;;8.68;100.00
59009;BME280;44794;42.652;23.318;2024-03-07T05:42:46;94328.59;;;8.93;100.00
59009;BME280;44794;42.652;23.318;2024-03-07T05:45:12;94334.28;;;8.98;100.00
59009;BME280;44794;42.652;23.318;2024-03-07T05:47:38;94337.94;;;8.60;100.00
59009;BME280;44794;42.652;23.318;2024-03-07T05:50:04;94331.28;;;8.68;100.00
59009;BME280;44794;42.652;23.318;2024-03-07T05:52:29;94335.75;;;9.13;100.00
59009;BME280;44794;42.652;23.318;2024-03-07T05:54:54;94342.47;;;8.92;100.00
59009;BME280;44794;42.652;23.318;2024-03-07T05:57:20;94340.94;;;9.13;100.00
59009;BME280;44794;42.652;23.318;2024-03-07T05:59:45;94350.31;;;9.26;100.00
59009;BME280;44794;42.652;23.318;2024-03-07T06:02:12;94353.94;;;9.47;100.00
59009;BME280;44794;42.652;23.318;2024-03-07T06:04:40;94354.59;;;9.38;99.83
59009;BME280;44794;42.652;23.318;2024-03-07T06:07:05;94360.56;;;9.28;99.15
59009;BME280;44794;42.652;23.318;2024-03-07T06:09:30;94344.34;;;9.37;99.63
59009;BME280;44794;42.652;23.318;2024-03-07T06:11:56;94349.75;;;9.68;99.14
59009;BME280;44794;42.652;23.318;2024-03-07T06:14:21;94367.09;;;9.68;98.65
59009;BME280;44794;42.652;23.318;2024-03-07T06:16:48;94373.66;;;9.37;98.04
59009;BME280;44794;42.652;23.318;2024-03-07T06:19:13;94378.00;;;9.26;97.73
59009;BME280;44794;42.652;23.318;2024-03-07T06:21:39;94387.22;;;9.41;97.90
59009;BME280;44794;42.652;23.318;2024-03-07T06:24:05;94383.84;;;9.51;98.71
59009;BME280;44794;42.652;23.318;2024-03-07T06:26:32;94378.00;;;9.26;97.32
59009;BME280;44794;42.652;23.318;2024-03-07T06:29:16;94371.03;;;9.26;100.00
59009;BME280;44794;42.652;23.318;2024-03-07T06:31:42;94363.28;;;9.26;100.00
59009;BME280;44794;42.652;23.318;2024-03-07T06:34:07;94373.78;;;9.36;100.00
59009;BME280;44794;42.652;23.318;2024-03-07T06:36:35;94374.16;;;9.66;100.00
59009;BME280;44794;42.652;23.318;2024-03-07T06:39:01;94370.69;;;9.88;100.00
59009;BME280;44794;42.652;23.318;2024-03-07T06:41:26;94368.31;;;9.85;100.00
59009;BME280;44794;42.652;23.318;2024-03-07T06:43:51;94360.06;;;9.80;100.00
59009;BME280;44794;42.652;23.318;2024-03-07T06:46:18;94365.03;;;9.94;100.00
59009;BME280;44794;42.652;23.318;2024-03-07T06:48:45;94382.09;;;10.20;100.00
59009;BME280;44794;42.652;23.318;2024-03-07T06:51:10;94398.59;;;10.19;98.30
59009;BME280;44794;42.652;23.318;2024-03-07T06:53:35;94396.94;;;10.07;97.23
59009;BME280;44794;42.652;23.318;2024-03-07T06:56:01;94383.88;;;9.85;97.20
59009;BME280;44794;42.652;23.318;2024-03-07T06:58:26;94390.56;;;10.11;99.31
59009;BME280;44794;42.652;23.318;2024-03-07T07:00:52;94382.44;;;10.16;98.16
59009;BME280;44794;42.652;23.318;2024-03-07T07:03:19;94386.72;;;9.93;97.60
59009;BME280;44794;42.652;23.318;2024-03-07T07:05:45;94375.38;;;10.18;97.41
59009;BME280;44794;42.652;23.318;2024-03-07T07:08:10;94383.66;;;10.34;97.42
59009;BME280;44794;42.652;23.318;2024-03-07T07:10:36;94382.81;;;10.22;95.17
59009;BME280;44794;42.652;23.318;2024-03-07T07:13:01;94374.31;;;10.42;96.04
59009;BME280;44794;42.652;23.318;2024-03-07T07:15:29;94370.66;;;10.45;94.22
59009;BME280;44794;42.652;23.318;2024-03-07T07:17:54;94368.63;;;10.26;95.18
59009;BME280;44794;42.652;23.318;2024-03-07T07:20:20;94357.56;;;10.46;94.41
59009;BME280;44794;42.652;23.318;2024-03-07T07:22:46;94374.31;;;10.53;93.23
59009;BME280;44794;42.652;23.318;2024-03-07T07:25:11;94381.09;;;11.09;92.14
59009;BME280;44794;42.652;23.318;2024-03-07T07:27:43;94381.94;;;11.09;88.84
59009;BME280;44794;42.652;23.318;2024-03-07T07:30:09;94379.69;;;11.47;88.88
59009;BME280;44794;42.652;23.318;2024-03-07T07:32:38;94383.88;;;11.38;85.00
59009;BME280;44794;42.652;23.318;2024-03-07T07:35:04;94385.91;;;11.35;84.36
59009;BME280;44794;42.652;23.318;2024-03-07T07:37:34;94388.84;;;11.41;85.85
59009;BME280;44794;42.652;23.318;2024-03-07T07:39:59;94378.00;;;11.68;84.76
59009;BME280;44794;42.652;23.318;2024-03-07T07:42:24;94394.19;;;11.71;82.75
59009;BME280;44794;42.652;23.318;2024-03-07T07:44:50;94387.78;;;11.75;80.84
59009;BME280;44794;42.652;23.318;2024-03-07T07:47:15;94389.97;;;11.91;79.10
59009;BME280;44794;42.652;23.318;2024-03-07T07:49:41;94379.81;;;12.08;81.49
59009;BME280;44794;42.652;23.318;2024-03-07T07:52:06;94369.91;;;12.22;81.75
59009;BME280;44794;42.652;23.318;2024-03-07T07:54:33;94390.22;;;12.08;78.64
59009;BME280;44794;42.652;23.318;2024-03-07T07:56:58;94383.38;;;12.27;78.70
59009;BME280;44794;42.652;23.318;2024-03-07T07:59:24;94391.94;;;12.39;78.12
59009;BME280;44794;42.652;23.318;2024-03-07T08:01:49;94390.91;;;12.51;75.98
59009;BME280;44794;42.652;23.318;2024-03-07T08:04:15;94394.06;;;12.54;74.76
59009;BME280;44794;42.652;23.318;2024-03-07T08:06:40;94401.00;;;12.44;74.55
59009;BME280;44794;42.652;23.318;2024-03-07T08:09:06;94408.44;;;12.78;73.91
59009;BME280;44794;42.652;23.318;2024-03-07T08:11:34;94398.09;;;12.38;74.41
59009;BME280;44794;42.652;23.318;2024-03-07T08:14:00;94408.50;;;12.38;75.34
59009;BME280;44794;42.652;23.318;2024-03-07T08:16:26;94410.16;;;12.69;73.39
59009;BME280;44794;42.652;23.318;2024-03-07T08:18:51;94416.69;;;12.83;71.71
59009;BME280;44794;42.652;23.318;2024-03-07T08:21:16;94400.81;;;11.64;80.70
59009;BME280;44794;42.652;23.318;2024-03-07T08:23:41;94406.75;;;11.66;80.46
59009;BME280;44794;42.652;23.318;2024-03-07T08:26:07;94411.00;;;11.67;78.72
59009;BME280;44794;42.652;23.318;2024-03-07T08:28:32;94407.72;;;11.43;81.90
59009;BME280;44794;42.652;23.318;2024-03-07T08:30:57;94416.72;;;11.39;81.90
59009;BME280;44794;42.652;23.318;2024-03-07T08:33:24;94413.94;;;11.21;84.55
59009;BME280;44794;42.652;23.318;2024-03-07T08:35:49;94417.72;;;11.17;84.85
59009;BME280;44794;42.652;23.318;2024-03-07T08:38:15;94421.69;;;11.42;85.55
59009;BME280;44794;42.652;23.318;2024-03-07T08:40:40;94419.41;;;11.49;85.23
59009;BME280;44794;42.652;23.318;2024-03-07T08:43:05;94424.94;;;11.77;83.96
59009;BME280;44794;42.652;23.318;2024-03-07T08:45:32;94439.00;;;12.47;80.88
59009;BME280;44794;42.652;23.318;2024-03-07T08:48:03;94444.31;;;12.66;76.32
59009;BME280;44794;42.652;23.318;2024-03-07T08:50:29;94438.25;;;12.85;77.58
59009;BME280;44794;42.652;23.318;2024-03-07T08:52:55;94460.63;;;12.88;72.29
59009;BME280;44794;42.652;23.318;2024-03-07T08:55:22;94459.94;;;13.16;72.77
59009;BME280;44794;42.652;23.318;2024-03-07T08:57:48;94465.63;;;13.30;70.65
59009;BME280;44794;42.652;23.318;2024-03-07T09:00:14;94465.34;;;13.33;68.05
59009;BME280;44794;42.652;23.318;2024-03-07T09:02:48;94474.69;;;13.36;66.13
59009;BME280;44794;42.652;23.318;2024-03-07T09:05:15;94463.03;;;13.00;67.36
59009;BME280;44794;42.652;23.318;2024-03-07T09:07:40;94463.47;;;13.05;69.50
59009;BME280;44794;42.652;23.318;2024-03-07T09:10:06;94464.97;;;12.78;67.53
59009;BME280;44794;42.652;23.318;2024-03-07T09:12:31;94462.34;;;12.98;68.81
59009;BME280;44794;42.652;23.318;2024-03-07T09:14:57;94460.44;;;13.00;69.77
59009;BME280;44794;42.652;23.318;2024-03-07T09:17:23;94457.66;;;12.92;69.06
59009;BME280;44794;42.652;23.318;2024-03-07T09:19:49;94464.66;;;12.92;69.40
59009;BME280;44794;42.652;23.318;2024-03-07T09:22:14;94470.59;;;13.03;70.16
59009;BME280;44794;42.652;23.318;2024-03-07T09:24:40;94462.13;;;12.61;71.76
59009;BME280;44794;42.652;23.318;2024-03-07T09:27:05;94471.66;;;12.51;71.00
59009;BME280;44794;42.652;23.318;2024-03-07T09:29:30;94470.69;;;12.92;69.46
59009;BME280;44794;42.652;23.318;2024-03-07T09:31:56;94461.22;;;12.91;71.19
59009;BME280;44794;42.652;23.318;2024-03-07T09:34:22;94459.91;;;13.06;70.06
59009;BME280;44794;42.652;23.318;2024-03-07T09:36:48;94466.66;;;13.48;71.04
59009;BME280;44794;42.652;23.318;2024-03-07T09:39:16;94464.66;;;13.31;68.46
59009;BME280;44794;42.652;23.318;2024-03-07T09:41:42;94464.03;;;13.48;66.82
59009;BME280;44794;42.652;23.318;2024-03-07T09:44:28;94471.81;;;13.29;66.07
59009;BME280;44794;42.652;23.318;2024-03-07T09:46:54;94462.19;;;13.00;68.83
59009;BME280;44794;42.652;23.318;2024-03-07T09:49:20;94467.00;;;12.54;70.53
59009;BME280;44794;42.652;23.318;2024-03-07T09:51:46;94450.31;;;12.36;73.17
59009;BME280;44794;42.652;23.318;2024-03-07T09:54:12;94456.31;;;11.85;75.82
59009;BME280;44794;42.652;23.318;2024-03-07T09:56:38;94443.75;;;11.48;78.06
59009;BME280;44794;42.652;23.318;2024-03-07T09:59:04;94440.00;;;11.41;79.97
59009;BME280;44794;42.652;23.318;2024-03-07T10:01:32;94439.19;;;11.29;80.17
59009;BME280;44794;42.652;23.318;2024-03-07T10:03:59;94436.38;;;11.11;82.10
59009;BME280;44794;42.652;23.318;2024-03-07T10:06:37;94415.88;;;10.86;87.35
59009;BME280;44794;42.652;23.318;2024-03-07T10:09:02;94430.88;;;11.04;85.43
59009;BME280;44794;42.652;23.318;2024-03-07T10:11:29;94415.63;;;11.00;85.29
59009;BME280;44794;42.652;23.318;2024-03-07T10:13:54;94422.59;;;10.99;86.28
59009;BME280;44794;42.652;23.318;2024-03-07T10:16:20;94433.63;;;11.87;83.31
59009;BME280;44794;42.652;23.318;2024-03-07T10:18:45;94427.97;;;12.02;78.32
59009;BME280;44794;42.652;23.318;2024-03-07T10:21:14;94428.81;;;12.03;77.62
59009;BME280;44794;42.652;23.318;2024-03-07T10:23:42;94432.56;;;12.51;74.02
59009;BME280;44794;42.652;23.318;2024-03-07T10:26:07;94432.28;;;12.74;72.94
59009;BME280;44794;42.652;23.318;2024-03-07T10:28:33;94427.84;;;13.15;74.04
59009;BME280;44794;42.652;23.318;2024-03-07T10:30:59;94436.16;;;13.48;70.20
59009;BME280;44794;42.652;23.318;2024-03-07T10:33:28;94451.56;;;13.61;65.93
59009;BME280;44794;42.652;23.318;2024-03-07T10:35:53;94442.94;;;14.08;65.09
59009;BME280;44794;42.652;23.318;2024-03-07T10:38:19;94439.13;;;14.40;64.95
59009;BME280;44794;42.652;23.318;2024-03-07T10:40:47;94449.28;;;13.96;63.15
59009;BME280;44794;42.652;23.318;2024-03-07T10:43:13;94447.94;;;14.20;62.40
59009;BME280;44794;42.652;23.318;2024-03-07T10:45:49;94454.34;;;13.97;62.64
59009;BME280;44794;42.652;23.318;2024-03-07T10:48:17;94446.25;;;13.72;64.15
59009;BME280;44794;42.652;23.318;2024-03-07T10:50:48;94447.22;;;13.90;63.22
59009;BME280;44794;42.652;23.318;2024-03-07T11:01:30;94423.06;;;12.90;67.81
59009;BME280;44794;42.652;23.318;2024-03-07T11:03:56;94412.53;;;12.72;69.77
59009;BME280;44794;42.652;23.318;2024-03-07T11:06:23;94409.69;;;12.34;72.73
59009;BME280;44794;42.652;23.318;2024-03-07T11:08:49;94402.16;;;12.31;74.23
59009;BME280;44794;42.652;23.318;2024-03-07T11:11:14;94397.13;;;11.78;76.80
59009;BME280;44794;42.652;23.318;2024-03-07T11:13:39;94395.16;;;11.70;79.04
59009;BME280;44794;42.652;23.318;2024-03-07T11:16:05;94391.09;;;11.77;78.82
59009;BME280;44794;42.652;23.318;2024-03-07T11:18:31;94392.84;;;11.88;78.92
59009;BME280;44794;42.652;23.318;2024-03-07T11:20:56;94391.06;;;11.57;79.21
59009;BME280;44794;42.652;23.318;2024-03-07T11:23:29;94395.22;;;12.00;77.57
59009;BME280;44794;42.652;23.318;2024-03-07T11:26:01;94410.81;;;12.11;75.73
59009;BME280;44794;42.652;23.318;2024-03-07T11:28:28;94390.56;;;11.63;78.53
59009;BME280;44794;42.652;23.318;2024-03-07T11:30:54;94393.03;;;11.64;79.52
59009;BME280;44794;42.652;23.318;2024-03-07T11:33:19;94393.81;;;11.76;77.63
59009;BME280;44794;42.652;23.318;2024-03-07T11:35:48;94388.06;;;12.13;75.22
59009;BME280;44794;42.652;23.318;2024-03-07T11:38:14;94394.78;;;12.56;73.67
59009;BME280;44794;42.652;23.318;2024-03-07T11:43:04;94384.03;;;12.50;76.34
59009;BME280;44794;42.652;23.318;2024-03-07T11:45:30;94386.63;;;12.50;76.90
59009;BME280;44794;42.652;23.318;2024-03-07T11:47:58;94394.56;;;12.98;73.11
59009;BME280;44794;42.652;23.318;2024-03-07T11:50:37;94395.72;;;13.15;71.64
59009;BME280;44794;42.652;23.318;2024-03-07T11:53:03;94378.91;;;12.89;73.46
59009;BME280;44794;42.652;23.318;2024-03-07T11:55:31;94376.59;;;12.66;74.56
59009;BME280;44794;42.652;23.318;2024-03-07T11:58:07;94376.84;;;12.92;73.74
59009;BME280;44794;42.652;23.318;2024-03-07T12:00:33;94387.84;;;12.75;72.25
59009;BME280;44794;42.652;23.318;2024-03-07T12:02:59;94381.47;;;12.59;72.15
59009;BME280;44794;42.652;23.318;2024-03-07T12:05:25;94387.59;;;12.99;71.23
59009;BME280;44794;42.652;23.318;2024-03-07T12:07:52;94380.38;;;12.32;73.42
59009;BME280;44794;42.652;23.318;2024-03-07T12:10:17;94375.59;;;12.37;74.02
59009;BME280;44794;42.652;23.318;2024-03-07T12:12:49;94366.66;;;12.50;75.52
59009;BME280;44794;42.652;23.318;2024-03-07T12:15:17;94364.25;;;12.38;76.52
59009;BME280;44794;42.652;23.318;2024-03-07T12:17:46;94366.50;;;12.52;76.59
59009;BME280;44794;42.652;23.318;2024-03-07T12:20:14;94380.94;;;13.44;73.02
59009;BME280;44794;42.652;23.318;2024-03-07T12:23:01;94383.88;;;13.01;70.08
59009;BME280;44794;42.652;23.318;2024-03-07T12:25:27;94375.28;;;12.80;71.21
59009;BME280;44794;42.652;23.318;2024-03-07T12:30:32;94384.13;;;13.47;67.81
59009;BME280;44794;42.652;23.318;2024-03-07T12:33:01;94384.13;;;13.47;67.35
59009;BME280;44794;42.652;23.318;2024-03-07T12:35:29;94391.53;;;13.33;67.79
59009;BME280;44794;42.652;23.318;2024-03-07T12:37:54;94383.72;;;13.51;68.13
59009;BME280;44794;42.652;23.318;2024-03-07T12:40:21;94377.28;;;13.07;69.47
59009;BME280;44794;42.652;23.318;2024-03-07T12:42:51;94376.66;;;12.84;70.47
59009;BME280;44794;42.652;23.318;2024-03-07T12:45:18;94366.66;;;12.30;73.61
59009;BME280;44794;42.652;23.318;2024-03-07T12:47:45;94366.06;;;12.47;73.99
59009;BME280;44794;42.652;23.318;2024-03-07T12:50:12;94359.47;;;12.43;75.12
59009;BME280;44794;42.652;23.318;2024-03-07T12:52:37;94361.63;;;12.97;71.77
59009;BME280;44794;42.652;23.318;2024-03-07T12:55:02;94370.63;;;13.23;71.30
59009;BME280;44794;42.652;23.318;2024-03-07T12:57:31;94378.50;;;13.42;68.72